sensor_id;sensor_type;location;lat;lon;timestamp;temperature;humidity
40534;DHT22;26233;51.894;10.192;2022-12-07T00:00:51;5.40;50.40
40534;DHT22;26233;51.894;10.192;2022-12-07T00:03:20;5.40;50.50
40534;DHT22;26233;51.894;10.192;2022-12-07T00:05:47;5.40;50.50
40534;DHT22;26233;51.894;10.192;2022-12-07T00:08:15;5.40;50.50
40534;DHT22;26233;51.894;10.192;2022-12-07T00:10:42;5.40;50.50
40534;DHT22;26233;51.894;10.192;2022-12-07T00:13:09;5.40;50.50
40534;DHT22;26233;51.894;10.192;2022-12-07T00:15:36;5.40;50.50
40534;DHT22;26233;51.894;10.192;2022-12-07T00:18:03;5.40;50.60
40534;DHT22;26233;51.894;10.192;2022-12-07T00:20:31;5.40;50.60
40534;DHT22;26233;51.894;10.192;2022-12-07T00:22:59;5.40;50.60
40534;DHT22;26233;51.894;10.192;2022-12-07T00:25:26;5.50;50.70
40534;DHT22;26233;51.894;10.192;2022-12-07T00:27:53;5.50;50.70
40534;DHT22;26233;51.894;10.192;2022-12-07T00:30:22;5.50;50.70
40534;DHT22;26233;51.894;10.192;2022-12-07T00:32:49;5.50;50.70
40534;DHT22;26233;51.894;10.192;2022-12-07T00:35:16;5.50;50.70
40534;DHT22;26233;51.894;10.192;2022-12-07T00:37:45;5.50;50.70
40534;DHT22;26233;51.894;10.192;2022-12-07T00:40:12;5.50;50.70
40534;DHT22;26233;51.894;10.192;2022-12-07T00:42:39;5.50;50.70
40534;DHT22;26233;51.894;10.192;2022-12-07T00:45:07;5.50;50.70
40534;DHT22;26233;51.894;10.192;2022-12-07T00:47:35;5.40;50.60
40534;DHT22;26233;51.894;10.192;2022-12-07T00:50:02;5.40;50.60
40534;DHT22;26233;51.894;10.192;2022-12-07T00:52:30;5.40;50.60
40534;DHT22;26233;51.894;10.192;2022-12-07T00:54:58;5.40;50.60
40534;DHT22;26233;51.894;10.192;2022-12-07T00:57:25;5.50;50.70
40534;DHT22;26233;51.894;10.192;2022-12-07T00:59:53;5.40;50.70
40534;DHT22;26233;51.894;10.192;2022-12-07T01:02:21;5.40;51.20
40534;DHT22;26233;51.894;10.192;2022-12-07T01:04:50;5.40;50.60
40534;DHT22;26233;51.894;10.192;2022-12-07T01:07:17;5.40;50.60
40534;DHT22;26233;51.894;10.192;2022-12-07T01:09:46;5.40;50.60
40534;DHT22;26233;51.894;10.192;2022-12-07T01:12:15;5.40;50.70
40534;DHT22;26233;51.894;10.192;2022-12-07T01:14:42;5.40;50.60
40534;DHT22;26233;51.894;10.192;2022-12-07T01:17:09;5.40;50.60
40534;DHT22;26233;51.894;10.192;2022-12-07T01:19:36;5.40;50.70
40534;DHT22;26233;51.894;10.192;2022-12-07T01:22:03;5.40;50.70
40534;DHT22;26233;51.894;10.192;2022-12-07T01:24:30;5.40;50.70
40534;DHT22;26233;51.894;10.192;2022-12-07T01:26:57;5.40;50.70
40534;DHT22;26233;51.894;10.192;2022-12-07T01:29:26;5.40;50.60
40534;DHT22;26233;51.894;10.192;2022-12-07T01:31:53;5.40;50.60
40534;DHT22;26233;51.894;10.192;2022-12-07T01:34:20;5.40;50.60
40534;DHT22;26233;51.894;10.192;2022-12-07T01:36:47;5.40;50.70
40534;DHT22;26233;51.894;10.192;2022-12-07T01:39:14;5.40;50.70
40534;DHT22;26233;51.894;10.192;2022-12-07T01:41:41;5.40;50.70
40534;DHT22;26233;51.894;10.192;2022-12-07T01:44:15;5.40;50.70
40534;DHT22;26233;51.894;10.192;2022-12-07T01:46:46;5.40;50.80
40534;DHT22;26233;51.894;10.192;2022-12-07T01:49:28;5.40;50.70
40534;DHT22;26233;51.894;10.192;2022-12-07T01:52:03;5.40;50.80
40534;DHT22;26233;51.894;10.192;2022-12-07T01:54:35;5.40;50.70
40534;DHT22;26233;51.894;10.192;2022-12-07T01:57:03;5.40;50.70
40534;DHT22;26233;51.894;10.192;2022-12-07T01:59:31;5.40;50.80
40534;DHT22;26233;51.894;10.192;2022-12-07T02:02:02;5.40;50.80
40534;DHT22;26233;51.894;10.192;2022-12-07T02:04:31;5.40;50.80
40534;DHT22;26233;51.894;10.192;2022-12-07T02:06:59;5.40;50.70
40534;DHT22;26233;51.894;10.192;2022-12-07T02:09:26;5.40;50.70
40534;DHT22;26233;51.894;10.192;2022-12-07T02:11:54;5.40;50.70
40534;DHT22;26233;51.894;10.192;2022-12-07T02:14:21;5.40;50.80
40534;DHT22;26233;51.894;10.192;2022-12-07T02:16:59;5.40;50.70
40534;DHT22;26233;51.894;10.192;2022-12-07T02:20:15;5.40;50.80
40534;DHT22;26233;51.894;10.192;2022-12-07T02:23:00;5.40;50.80
40534;DHT22;26233;51.894;10.192;2022-12-07T02:26:32;5.40;50.80
40534;DHT22;26233;51.894;10.192;2022-12-07T02:29:25;5.40;51.40
40534;DHT22;26233;51.894;10.192;2022-12-07T02:32:02;5.40;50.70
40534;DHT22;26233;51.894;10.192;2022-12-07T02:34:39;5.40;50.70
40534;DHT22;26233;51.894;10.192;2022-12-07T02:37:18;5.40;50.80
40534;DHT22;26233;51.894;10.192;2022-12-07T02:39:53;5.40;50.70
40534;DHT22;26233;51.894;10.192;2022-12-07T02:42:32;5.40;50.80
40534;DHT22;26233;51.894;10.192;2022-12-07T02:45:04;5.40;50.80
40534;DHT22;26233;51.894;10.192;2022-12-07T02:47:34;5.40;50.80
40534;DHT22;26233;51.894;10.192;2022-12-07T02:50:03;5.40;50.80
40534;DHT22;26233;51.894;10.192;2022-12-07T02:52:31;5.40;50.80
40534;DHT22;26233;51.894;10.192;2022-12-07T02:54:58;5.40;50.90
40534;DHT22;26233;51.894;10.192;2022-12-07T02:57:43;5.20;50.70
40534;DHT22;26233;51.894;10.192;2022-12-07T03:00:19;5.40;50.90
40534;DHT22;26233;51.894;10.192;2022-12-07T03:02:52;5.40;50.90
40534;DHT22;26233;51.894;10.192;2022-12-07T03:08:36;5.40;51.00
40534;DHT22;26233;51.894;10.192;2022-12-07T03:11:10;5.40;50.90
40534;DHT22;26233;51.894;10.192;2022-12-07T03:13:42;5.40;50.80
40534;DHT22;26233;51.894;10.192;2022-12-07T03:16:17;5.40;50.80
40534;DHT22;26233;51.894;10.192;2022-12-07T03:18:48;5.40;50.80
40534;DHT22;26233;51.894;10.192;2022-12-07T03:21:20;5.40;50.90
40534;DHT22;26233;51.894;10.192;2022-12-07T03:23:52;5.40;50.90
40534;DHT22;26233;51.894;10.192;2022-12-07T03:26:24;5.40;50.90
40534;DHT22;26233;51.894;10.192;2022-12-07T03:28:58;5.40;50.90
40534;DHT22;26233;51.894;10.192;2022-12-07T03:31:32;5.40;51.00
40534;DHT22;26233;51.894;10.192;2022-12-07T03:34:11;5.50;51.20
40534;DHT22;26233;51.894;10.192;2022-12-07T03:36:43;5.50;51.10
40534;DHT22;26233;51.894;10.192;2022-12-07T03:39:19;5.50;51.10
40534;DHT22;26233;51.894;10.192;2022-12-07T03:41:49;5.50;51.10
40534;DHT22;26233;51.894;10.192;2022-12-07T03:44:17;5.60;51.20
40534;DHT22;26233;51.894;10.192;2022-12-07T03:46:50;5.60;51.20
40534;DHT22;26233;51.894;10.192;2022-12-07T03:49:26;5.60;51.20
40534;DHT22;26233;51.894;10.192;2022-12-07T03:52:02;5.60;51.20
40534;DHT22;26233;51.894;10.192;2022-12-07T03:54:36;5.70;51.30
40534;DHT22;26233;51.894;10.192;2022-12-07T03:57:07;5.70;51.20
40534;DHT22;26233;51.894;10.192;2022-12-07T03:59:36;5.70;51.20
40534;DHT22;26233;51.894;10.192;2022-12-07T04:02:06;5.70;51.20
40534;DHT22;26233;51.894;10.192;2022-12-07T04:04:34;5.70;51.20
40534;DHT22;26233;51.894;10.192;2022-12-07T04:07:02;5.70;51.20
40534;DHT22;26233;51.894;10.192;2022-12-07T04:09:29;5.80;51.20
40534;DHT22;26233;51.894;10.192;2022-12-07T04:11:56;5.80;51.80
40534;DHT22;26233;51.894;10.192;2022-12-07T04:14:26;5.80;51.20
40534;DHT22;26233;51.894;10.192;2022-12-07T04:16:55;5.80;51.20
40534;DHT22;26233;51.894;10.192;2022-12-07T04:19:26;5.80;51.20
40534;DHT22;26233;51.894;10.192;2022-12-07T04:21:54;5.80;51.20
40534;DHT22;26233;51.894;10.192;2022-12-07T04:24:22;5.80;51.20
40534;DHT22;26233;51.894;10.192;2022-12-07T04:26:49;5.80;51.20
40534;DHT22;26233;51.894;10.192;2022-12-07T04:29:19;5.80;51.20
40534;DHT22;26233;51.894;10.192;2022-12-07T04:31:47;5.80;51.20
40534;DHT22;26233;51.894;10.192;2022-12-07T04:34:15;5.80;51.20
40534;DHT22;26233;51.894;10.192;2022-12-07T04:36:47;5.80;51.20
40534;DHT22;26233;51.894;10.192;2022-12-07T04:39:19;5.80;51.20
40534;DHT22;26233;51.894;10.192;2022-12-07T04:41:48;5.80;51.20
40534;DHT22;26233;51.894;10.192;2022-12-07T04:44:15;5.80;51.20
40534;DHT22;26233;51.894;10.192;2022-12-07T04:46:43;5.80;51.20
40534;DHT22;26233;51.894;10.192;2022-12-07T04:49:12;5.90;51.40
40534;DHT22;26233;51.894;10.192;2022-12-07T04:51:39;5.90;51.40
40534;DHT22;26233;51.894;10.192;2022-12-07T04:54:08;5.90;52.00
40534;DHT22;26233;51.894;10.192;2022-12-07T04:56:36;5.90;51.30
40534;DHT22;26233;51.894;10.192;2022-12-07T04:59:04;5.90;51.40
40534;DHT22;26233;51.894;10.192;2022-12-07T05:01:32;6.00;51.40
40534;DHT22;26233;51.894;10.192;2022-12-07T05:04:00;6.00;51.30
40534;DHT22;26233;51.894;10.192;2022-12-07T05:06:27;6.00;51.30
40534;DHT22;26233;51.894;10.192;2022-12-07T05:08:54;6.00;51.30
40534;DHT22;26233;51.894;10.192;2022-12-07T05:11:23;6.00;51.30
40534;DHT22;26233;51.894;10.192;2022-12-07T05:14:08;6.00;51.30
40534;DHT22;26233;51.894;10.192;2022-12-07T05:16:37;6.00;51.30
40534;DHT22;26233;51.894;10.192;2022-12-07T05:19:05;6.00;51.20
40534;DHT22;26233;51.894;10.192;2022-12-07T05:21:33;6.00;51.20
40534;DHT22;26233;51.894;10.192;2022-12-07T05:24:00;6.00;51.10
40534;DHT22;26233;51.894;10.192;2022-12-07T05:26:29;6.00;51.20
40534;DHT22;26233;51.894;10.192;2022-12-07T05:28:57;6.00;51.20
40534;DHT22;26233;51.894;10.192;2022-12-07T05:31:27;6.00;51.20
40534;DHT22;26233;51.894;10.192;2022-12-07T05:33:55;6.00;51.20
40534;DHT22;26233;51.894;10.192;2022-12-07T05:36:22;6.10;51.30
40534;DHT22;26233;51.894;10.192;2022-12-07T05:38:49;6.00;51.20
40534;DHT22;26233;51.894;10.192;2022-12-07T05:41:18;6.00;51.20
40534;DHT22;26233;51.894;10.192;2022-12-07T05:44:05;6.10;51.30
40534;DHT22;26233;51.894;10.192;2022-12-07T05:46:32;6.10;51.30
40534;DHT22;26233;51.894;10.192;2022-12-07T05:49:00;6.10;51.30
40534;DHT22;26233;51.894;10.192;2022-12-07T05:51:27;6.10;51.30
40534;DHT22;26233;51.894;10.192;2022-12-07T05:53:57;6.10;51.20
40534;DHT22;26233;51.894;10.192;2022-12-07T05:56:24;6.10;51.20
40534;DHT22;26233;51.894;10.192;2022-12-07T05:58:52;6.10;51.20
40534;DHT22;26233;51.894;10.192;2022-12-07T06:01:38;6.10;51.20
40534;DHT22;26233;51.894;10.192;2022-12-07T06:04:05;6.10;51.20
40534;DHT22;26233;51.894;10.192;2022-12-07T06:06:32;6.10;51.20
40534;DHT22;26233;51.894;10.192;2022-12-07T06:08:59;6.10;51.10
40534;DHT22;26233;51.894;10.192;2022-12-07T06:11:26;6.10;51.20
40534;DHT22;26233;51.894;10.192;2022-12-07T06:14:11;6.10;51.20
40534;DHT22;26233;51.894;10.192;2022-12-07T06:16:40;6.10;51.20
40534;DHT22;26233;51.894;10.192;2022-12-07T06:19:10;6.10;51.20
40534;DHT22;26233;51.894;10.192;2022-12-07T06:21:39;6.10;51.20
40534;DHT22;26233;51.894;10.192;2022-12-07T06:24:07;6.10;51.20
40534;DHT22;26233;51.894;10.192;2022-12-07T06:26:36;6.20;51.20
40534;DHT22;26233;51.894;10.192;2022-12-07T06:29:03;6.20;51.20
40534;DHT22;26233;51.894;10.192;2022-12-07T06:31:30;6.20;51.20
40534;DHT22;26233;51.894;10.192;2022-12-07T06:34:01;6.20;51.80
40534;DHT22;26233;51.894;10.192;2022-12-07T06:36:30;6.20;51.20
40534;DHT22;26233;51.894;10.192;2022-12-07T06:38:57;6.20;51.20
40534;DHT22;26233;51.894;10.192;2022-12-07T06:41:24;6.20;51.20
40534;DHT22;26233;51.894;10.192;2022-12-07T06:44:03;6.10;51.20
40534;DHT22;26233;51.894;10.192;2022-12-07T06:46:30;6.20;51.30
40534;DHT22;26233;51.894;10.192;2022-12-07T06:48:57;6.20;51.30
40534;DHT22;26233;51.894;10.192;2022-12-07T06:51:26;6.20;51.30
40534;DHT22;26233;51.894;10.192;2022-12-07T06:53:53;6.20;51.30
40534;DHT22;26233;51.894;10.192;2022-12-07T06:56:20;6.20;51.30
40534;DHT22;26233;51.894;10.192;2022-12-07T06:58:49;6.20;51.30
40534;DHT22;26233;51.894;10.192;2022-12-07T07:01:18;6.20;51.30
40534;DHT22;26233;51.894;10.192;2022-12-07T07:03:46;6.20;51.30
40534;DHT22;26233;51.894;10.192;2022-12-07T07:06:15;6.30;51.40
40534;DHT22;26233;51.894;10.192;2022-12-07T07:08:42;6.30;51.30
40534;DHT22;26233;51.894;10.192;2022-12-07T07:11:11;6.30;51.40
40534;DHT22;26233;51.894;10.192;2022-12-07T07:13:38;6.30;51.40
40534;DHT22;26233;51.894;10.192;2022-12-07T07:16:06;6.30;51.30
40534;DHT22;26233;51.894;10.192;2022-12-07T07:18:34;6.30;51.30
40534;DHT22;26233;51.894;10.192;2022-12-07T07:21:01;6.30;51.20
40534;DHT22;26233;51.894;10.192;2022-12-07T07:23:30;6.30;51.20
40534;DHT22;26233;51.894;10.192;2022-12-07T07:25:57;6.30;51.20
40534;DHT22;26233;51.894;10.192;2022-12-07T07:28:24;6.30;51.20
40534;DHT22;26233;51.894;10.192;2022-12-07T07:30:51;6.30;51.20
40534;DHT22;26233;51.894;10.192;2022-12-07T07:33:18;6.30;51.20
40534;DHT22;26233;51.894;10.192;2022-12-07T07:35:45;6.40;51.30
40534;DHT22;26233;51.894;10.192;2022-12-07T07:38:13;6.40;51.30
40534;DHT22;26233;51.894;10.192;2022-12-07T07:40:41;6.40;51.30
40534;DHT22;26233;51.894;10.192;2022-12-07T07:43:10;6.40;51.90
40534;DHT22;26233;51.894;10.192;2022-12-07T07:45:37;6.40;51.20
40534;DHT22;26233;51.894;10.192;2022-12-07T07:48:04;6.40;51.20
40534;DHT22;26233;51.894;10.192;2022-12-07T07:50:34;6.40;51.20
40534;DHT22;26233;51.894;10.192;2022-12-07T07:53:02;6.40;51.20
40534;DHT22;26233;51.894;10.192;2022-12-07T07:55:29;6.30;51.10
40534;DHT22;26233;51.894;10.192;2022-12-07T07:57:57;6.30;51.10
40534;DHT22;26233;51.894;10.192;2022-12-07T08:00:24;6.30;51.70
40534;DHT22;26233;51.894;10.192;2022-12-07T08:02:51;6.30;51.20
40534;DHT22;26233;51.894;10.192;2022-12-07T08:05:18;6.30;51.10
40534;DHT22;26233;51.894;10.192;2022-12-07T08:07:45;6.30;51.20
40534;DHT22;26233;51.894;10.192;2022-12-07T08:10:13;6.30;51.20
40534;DHT22;26233;51.894;10.192;2022-12-07T08:12:42;6.30;51.20
40534;DHT22;26233;51.894;10.192;2022-12-07T08:15:25;6.40;51.30
40534;DHT22;26233;51.894;10.192;2022-12-07T08:17:53;6.40;51.30
40534;DHT22;26233;51.894;10.192;2022-12-07T08:20:20;6.30;51.10
40534;DHT22;26233;51.894;10.192;2022-12-07T08:22:47;6.30;51.10
40534;DHT22;26233;51.894;10.192;2022-12-07T08:25:14;6.30;51.10
40534;DHT22;26233;51.894;10.192;2022-12-07T08:27:41;6.30;51.20
40534;DHT22;26233;51.894;10.192;2022-12-07T08:30:09;6.30;51.20
40534;DHT22;26233;51.894;10.192;2022-12-07T08:32:37;6.30;51.20
40534;DHT22;26233;51.894;10.192;2022-12-07T08:35:05;6.30;51.90
40534;DHT22;26233;51.894;10.192;2022-12-07T08:37:35;6.30;51.20
40534;DHT22;26233;51.894;10.192;2022-12-07T08:40:02;6.30;51.30
40534;DHT22;26233;51.894;10.192;2022-12-07T08:42:30;6.30;51.40
40534;DHT22;26233;51.894;10.192;2022-12-07T08:45:04;6.30;51.30
40534;DHT22;26233;51.894;10.192;2022-12-07T08:47:33;6.40;51.50
40534;DHT22;26233;51.894;10.192;2022-12-07T08:50:03;6.40;51.50
40534;DHT22;26233;51.894;10.192;2022-12-07T08:52:31;6.40;51.50
40534;DHT22;26233;51.894;10.192;2022-12-07T08:54:59;6.40;51.50
40534;DHT22;26233;51.894;10.192;2022-12-07T08:57:27;6.50;51.60
40534;DHT22;26233;51.894;10.192;2022-12-07T08:59:55;6.50;51.50
40534;DHT22;26233;51.894;10.192;2022-12-07T09:02:23;6.50;52.10
40534;DHT22;26233;51.894;10.192;2022-12-07T09:04:50;6.50;51.50
40534;DHT22;26233;51.894;10.192;2022-12-07T09:07:19;6.60;51.50
40534;DHT22;26233;51.894;10.192;2022-12-07T09:09:46;6.60;51.40
40534;DHT22;26233;51.894;10.192;2022-12-07T09:12:13;6.60;51.40
40534;DHT22;26233;51.894;10.192;2022-12-07T09:14:40;6.60;51.40
40534;DHT22;26233;51.894;10.192;2022-12-07T09:17:08;6.60;51.40
40534;DHT22;26233;51.894;10.192;2022-12-07T09:19:37;6.60;51.40
40534;DHT22;26233;51.894;10.192;2022-12-07T09:22:04;6.60;51.40
40534;DHT22;26233;51.894;10.192;2022-12-07T09:24:33;6.70;51.50
40534;DHT22;26233;51.894;10.192;2022-12-07T09:27:00;6.70;51.40
40534;DHT22;26233;51.894;10.192;2022-12-07T09:29:27;6.70;51.40
40534;DHT22;26233;51.894;10.192;2022-12-07T09:31:54;6.70;51.40
40534;DHT22;26233;51.894;10.192;2022-12-07T09:34:21;6.70;51.40
40534;DHT22;26233;51.894;10.192;2022-12-07T09:36:49;6.70;51.40
40534;DHT22;26233;51.894;10.192;2022-12-07T09:39:16;6.70;51.40
40534;DHT22;26233;51.894;10.192;2022-12-07T09:41:44;6.70;51.40
40534;DHT22;26233;51.894;10.192;2022-12-07T09:44:14;6.80;51.50
40534;DHT22;26233;51.894;10.192;2022-12-07T09:46:45;6.80;51.50
40534;DHT22;26233;51.894;10.192;2022-12-07T09:49:16;6.80;51.50
40534;DHT22;26233;51.894;10.192;2022-12-07T09:51:45;6.80;51.40
40534;DHT22;26233;51.894;10.192;2022-12-07T09:54:14;6.80;51.40
40534;DHT22;26233;51.894;10.192;2022-12-07T09:56:44;6.80;51.30
40534;DHT22;26233;51.894;10.192;2022-12-07T09:59:16;6.90;51.40
40534;DHT22;26233;51.894;10.192;2022-12-07T10:01:45;6.90;51.30
40534;DHT22;26233;51.894;10.192;2022-12-07T10:04:16;6.90;51.30
40534;DHT22;26233;51.894;10.192;2022-12-07T10:06:45;6.90;51.20
40534;DHT22;26233;51.894;10.192;2022-12-07T10:09:15;6.90;51.10
40534;DHT22;26233;51.894;10.192;2022-12-07T10:12:01;6.80;51.00
40534;DHT22;26233;51.894;10.192;2022-12-07T10:14:33;6.80;50.90
40534;DHT22;26233;51.894;10.192;2022-12-07T10:17:01;6.70;50.80
40534;DHT22;26233;51.894;10.192;2022-12-07T10:19:30;6.70;50.90
40534;DHT22;26233;51.894;10.192;2022-12-07T10:22:04;6.70;50.90
40534;DHT22;26233;51.894;10.192;2022-12-07T10:24:36;6.70;51.00
40534;DHT22;26233;51.894;10.192;2022-12-07T10:27:18;6.70;51.00
40534;DHT22;26233;51.894;10.192;2022-12-07T10:29:51;6.70;51.10
40534;DHT22;26233;51.894;10.192;2022-12-07T10:32:31;6.70;51.10
40534;DHT22;26233;51.894;10.192;2022-12-07T10:35:23;6.70;51.20
40534;DHT22;26233;51.894;10.192;2022-12-07T10:37:55;6.70;51.20
40534;DHT22;26233;51.894;10.192;2022-12-07T10:40:27;6.70;51.20
40534;DHT22;26233;51.894;10.192;2022-12-07T10:43:07;6.70;51.20
40534;DHT22;26233;51.894;10.192;2022-12-07T10:46:08;6.70;51.10
40534;DHT22;26233;51.894;10.192;2022-12-07T10:48:57;6.70;51.00
40534;DHT22;26233;51.894;10.192;2022-12-07T10:51:35;6.60;50.90
40534;DHT22;26233;51.894;10.192;2022-12-07T10:54:11;6.60;50.90
40534;DHT22;26233;51.894;10.192;2022-12-07T10:56:55;6.60;50.90
40534;DHT22;26233;51.894;10.192;2022-12-07T10:59:52;6.60;50.90
40534;DHT22;26233;51.894;10.192;2022-12-07T11:02:45;6.60;51.00
40534;DHT22;26233;51.894;10.192;2022-12-07T11:05:28;6.50;51.00
40534;DHT22;26233;51.894;10.192;2022-12-07T11:08:05;6.50;51.00
40534;DHT22;26233;51.894;10.192;2022-12-07T11:10:46;6.50;50.90
40534;DHT22;26233;51.894;10.192;2022-12-07T11:13:28;6.50;51.00
40534;DHT22;26233;51.894;10.192;2022-12-07T11:16:10;6.60;51.10
40534;DHT22;26233;51.894;10.192;2022-12-07T11:19:18;6.50;51.00
40534;DHT22;26233;51.894;10.192;2022-12-07T11:21:56;6.50;50.90
40534;DHT22;26233;51.894;10.192;2022-12-07T11:24:30;6.50;51.00
40534;DHT22;26233;51.894;10.192;2022-12-07T11:27:12;6.50;50.90
40534;DHT22;26233;51.894;10.192;2022-12-07T11:30:03;6.40;51.50
40534;DHT22;26233;51.894;10.192;2022-12-07T11:32:49;6.50;50.90
40534;DHT22;26233;51.894;10.192;2022-12-07T11:35:29;6.50;50.90
40534;DHT22;26233;51.894;10.192;2022-12-07T11:38:10;6.40;50.90
40534;DHT22;26233;51.894;10.192;2022-12-07T11:40:40;6.50;50.90
40534;DHT22;26233;51.894;10.192;2022-12-07T11:43:18;6.50;50.90
40534;DHT22;26233;51.894;10.192;2022-12-07T11:45:54;6.50;50.90
40534;DHT22;26233;51.894;10.192;2022-12-07T11:48:33;6.50;51.00
40534;DHT22;26233;51.894;10.192;2022-12-07T11:51:03;6.50;50.90
40534;DHT22;26233;51.894;10.192;2022-12-07T11:53:35;6.50;51.00
40534;DHT22;26233;51.894;10.192;2022-12-07T11:56:09;6.50;51.00
40534;DHT22;26233;51.894;10.192;2022-12-07T11:58:48;6.50;51.00
40534;DHT22;26233;51.894;10.192;2022-12-07T12:01:26;6.60;51.30
40534;DHT22;26233;51.894;10.192;2022-12-07T12:04:07;6.50;51.10
40534;DHT22;26233;51.894;10.192;2022-12-07T12:06:48;6.60;51.30
40534;DHT22;26233;51.894;10.192;2022-12-07T12:09:17;6.70;51.50
40534;DHT22;26233;51.894;10.192;2022-12-07T12:12:02;6.70;51.50
40534;DHT22;26233;51.894;10.192;2022-12-07T12:14:52;6.80;51.50
40534;DHT22;26233;51.894;10.192;2022-12-07T12:17:40;6.80;51.40
40534;DHT22;26233;51.894;10.192;2022-12-07T12:20:20;6.90;51.50
40534;DHT22;26233;51.894;10.192;2022-12-07T12:22:53;7.00;52.20
40534;DHT22;26233;51.894;10.192;2022-12-07T12:25:25;7.20;52.80
40534;DHT22;26233;51.894;10.192;2022-12-07T12:27:56;7.40;53.00
40534;DHT22;26233;51.894;10.192;2022-12-07T12:30:31;7.50;52.60
40534;DHT22;26233;51.894;10.192;2022-12-07T12:33:05;7.60;52.00
40534;DHT22;26233;51.894;10.192;2022-12-07T12:35:41;7.70;51.50
40534;DHT22;26233;51.894;10.192;2022-12-07T12:38:30;7.70;51.10
40534;DHT22;26233;51.894;10.192;2022-12-07T12:41:00;7.60;50.40
40534;DHT22;26233;51.894;10.192;2022-12-07T12:43:49;7.60;50.30
40534;DHT22;26233;51.894;10.192;2022-12-07T12:46:46;7.50;50.30
40534;DHT22;26233;51.894;10.192;2022-12-07T12:49:43;7.40;50.70
40534;DHT22;26233;51.894;10.192;2022-12-07T12:53:00;7.40;51.10
40534;DHT22;26233;51.894;10.192;2022-12-07T12:58:45;7.50;51.00
40534;DHT22;26233;51.894;10.192;2022-12-07T13:01:44;7.50;51.00
40534;DHT22;26233;51.894;10.192;2022-12-07T13:04:38;7.40;50.60
40534;DHT22;26233;51.894;10.192;2022-12-07T13:10:39;7.40;50.40
40534;DHT22;26233;51.894;10.192;2022-12-07T13:13:33;7.30;50.40
40534;DHT22;26233;51.894;10.192;2022-12-07T13:16:37;7.30;50.40
40534;DHT22;26233;51.894;10.192;2022-12-07T13:22:40;7.20;50.40
40534;DHT22;26233;51.894;10.192;2022-12-07T13:25:12;7.20;50.50
40534;DHT22;26233;51.894;10.192;2022-12-07T13:27:52;7.20;50.50
40534;DHT22;26233;51.894;10.192;2022-12-07T13:30:23;7.20;50.60
40534;DHT22;26233;51.894;10.192;2022-12-07T13:32:52;7.10;50.70
40534;DHT22;26233;51.894;10.192;2022-12-07T13:35:28;7.10;50.70
40534;DHT22;26233;51.894;10.192;2022-12-07T13:37:56;7.20;50.70
40534;DHT22;26233;51.894;10.192;2022-12-07T13:40:26;7.20;50.60
40534;DHT22;26233;51.894;10.192;2022-12-07T13:43:02;7.20;50.50
40534;DHT22;26233;51.894;10.192;2022-12-07T13:45:32;7.20;50.50
40534;DHT22;26233;51.894;10.192;2022-12-07T13:48:18;7.10;50.30
40534;DHT22;26233;51.894;10.192;2022-12-07T13:50:53;7.10;50.40
40534;DHT22;26233;51.894;10.192;2022-12-07T13:53:21;7.10;50.40
40534;DHT22;26233;51.894;10.192;2022-12-07T13:55:49;7.10;50.50
40534;DHT22;26233;51.894;10.192;2022-12-07T13:58:18;7.10;50.50
40534;DHT22;26233;51.894;10.192;2022-12-07T14:00:45;7.10;50.50
40534;DHT22;26233;51.894;10.192;2022-12-07T14:03:31;7.00;50.50
40534;DHT22;26233;51.894;10.192;2022-12-07T14:06:15;7.00;50.40
40534;DHT22;26233;51.894;10.192;2022-12-07T14:08:45;7.00;50.50
40534;DHT22;26233;51.894;10.192;2022-12-07T14:11:17;7.00;50.50
40534;DHT22;26233;51.894;10.192;2022-12-07T14:13:56;7.00;50.50
40534;DHT22;26233;51.894;10.192;2022-12-07T14:16:27;7.00;50.40
40534;DHT22;26233;51.894;10.192;2022-12-07T14:18:56;7.00;50.50
40534;DHT22;26233;51.894;10.192;2022-12-07T14:21:25;7.00;50.40
40534;DHT22;26233;51.894;10.192;2022-12-07T14:24:18;6.90;50.10
40534;DHT22;26233;51.894;10.192;2022-12-07T14:26:47;6.90;50.10
40534;DHT22;26233;51.894;10.192;2022-12-07T14:29:37;6.80;50.20
40534;DHT22;26233;51.894;10.192;2022-12-07T14:32:22;6.80;50.30
40534;DHT22;26233;51.894;10.192;2022-12-07T14:35:08;6.80;50.40
40534;DHT22;26233;51.894;10.192;2022-12-07T14:37:37;6.80;50.50
40534;DHT22;26233;51.894;10.192;2022-12-07T14:40:06;6.80;50.60
40534;DHT22;26233;51.894;10.192;2022-12-07T14:42:36;6.80;50.50
40534;DHT22;26233;51.894;10.192;2022-12-07T14:45:10;6.80;50.50
40534;DHT22;26233;51.894;10.192;2022-12-07T14:47:40;6.80;50.50
40534;DHT22;26233;51.894;10.192;2022-12-07T14:50:10;6.80;50.50
40534;DHT22;26233;51.894;10.192;2022-12-07T14:52:39;6.80;50.40
40534;DHT22;26233;51.894;10.192;2022-12-07T14:55:20;6.80;50.30
40534;DHT22;26233;51.894;10.192;2022-12-07T14:57:50;6.80;50.30
40534;DHT22;26233;51.894;10.192;2022-12-07T15:00:20;6.80;50.30
40534;DHT22;26233;51.894;10.192;2022-12-07T15:02:48;6.80;50.20
40534;DHT22;26233;51.894;10.192;2022-12-07T15:05:16;6.80;50.30
40534;DHT22;26233;51.894;10.192;2022-12-07T15:07:44;6.70;50.10
40534;DHT22;26233;51.894;10.192;2022-12-07T15:10:16;6.80;50.20
40534;DHT22;26233;51.894;10.192;2022-12-07T15:12:45;6.70;50.10
40534;DHT22;26233;51.894;10.192;2022-12-07T15:15:12;6.70;50.20
40534;DHT22;26233;51.894;10.192;2022-12-07T15:17:41;6.70;50.20
40534;DHT22;26233;51.894;10.192;2022-12-07T15:20:11;6.70;50.10
40534;DHT22;26233;51.894;10.192;2022-12-07T15:22:40;6.60;50.00
40534;DHT22;26233;51.894;10.192;2022-12-07T15:25:08;6.60;50.10
40534;DHT22;26233;51.894;10.192;2022-12-07T15:27:39;6.60;50.10
40534;DHT22;26233;51.894;10.192;2022-12-07T15:30:07;6.50;50.00
40534;DHT22;26233;51.894;10.192;2022-12-07T15:32:34;6.50;50.10
40534;DHT22;26233;51.894;10.192;2022-12-07T15:35:03;6.50;50.10
40534;DHT22;26233;51.894;10.192;2022-12-07T15:37:31;6.50;50.10
40534;DHT22;26233;51.894;10.192;2022-12-07T15:39:58;6.50;50.10
40534;DHT22;26233;51.894;10.192;2022-12-07T15:42:25;6.50;50.20
40534;DHT22;26233;51.894;10.192;2022-12-07T15:44:52;6.50;50.20
40534;DHT22;26233;51.894;10.192;2022-12-07T15:47:30;6.50;50.30
40534;DHT22;26233;51.894;10.192;2022-12-07T15:49:57;6.50;50.30
40534;DHT22;26233;51.894;10.192;2022-12-07T15:52:26;6.50;50.30
40534;DHT22;26233;51.894;10.192;2022-12-07T15:54:53;6.50;50.20
40534;DHT22;26233;51.894;10.192;2022-12-07T15:57:20;6.50;50.20
40534;DHT22;26233;51.894;10.192;2022-12-07T15:59:48;6.50;50.20
40534;DHT22;26233;51.894;10.192;2022-12-07T16:02:15;6.50;50.10
40534;DHT22;26233;51.894;10.192;2022-12-07T16:04:42;6.50;50.00
40534;DHT22;26233;51.894;10.192;2022-12-07T16:07:09;6.50;50.00
40534;DHT22;26233;51.894;10.192;2022-12-07T16:09:38;6.50;50.00
40534;DHT22;26233;51.894;10.192;2022-12-07T16:12:06;6.50;50.00
40534;DHT22;26233;51.894;10.192;2022-12-07T16:14:33;6.50;50.00